createdAt,value
2019-01-16T00:00:48.312Z,966.69
2019-01-16T00:01:48.307Z,966.67
2019-01-16T00:02:48.286Z,966.67
2019-01-16T00:03:48.277Z,966.71
2019-01-16T00:04:48.305Z,966.70
2019-01-16T00:05:48.268Z,966.68
2019-01-16T00:06:48.237Z,966.78
2019-01-16T00:07:48.235Z,966.72
2019-01-16T00:08:48.212Z,966.73
2019-01-16T00:09:48.209Z,966.73
2019-01-16T00:10:48.244Z,966.68
2019-01-16T00:11:48.192Z,966.71
2019-01-16T00:12:48.185Z,966.73
2019-01-16T00:13:48.171Z,966.68
2019-01-16T00:14:48.155Z,966.64
2019-01-16T00:15:48.180Z,966.72
2019-01-16T00:16:48.131Z,966.69
2019-01-16T00:17:48.130Z,966.73
2019-01-16T00:18:48.164Z,966.70
2019-01-16T00:19:48.118Z,966.71
2019-01-16T00:20:48.106Z,966.69
2019-01-16T00:21:48.105Z,966.69
2019-01-16T00:22:48.099Z,966.68
2019-01-16T00:23:48.075Z,966.70
2019-01-16T00:24:48.044Z,966.69
2019-01-16T00:25:48.027Z,966.63
2019-01-16T00:26:48.050Z,966.68
2019-01-16T00:27:48.071Z,966.71
2019-01-16T00:28:48.032Z,966.68
2019-01-16T00:29:47.982Z,966.72
2019-01-16T00:30:47.979Z,966.73
2019-01-16T00:31:47.988Z,966.69
2019-01-16T00:32:47.989Z,966.68
2019-01-16T00:33:47.971Z,966.65
2019-01-16T00:34:47.960Z,966.69
2019-01-16T00:35:47.939Z,966.59
2019-01-16T00:36:47.945Z,966.64
2019-01-16T00:37:47.896Z,966.55
2019-01-16T00:38:47.998Z,966.58
2019-01-16T00:39:47.894Z,966.49
2019-01-16T00:40:47.869Z,966.56
2019-01-16T00:41:47.869Z,966.56
2019-01-16T00:42:47.860Z,966.58
2019-01-16T00:43:47.862Z,966.60
2019-01-16T00:44:47.847Z,966.61
2019-01-16T00:45:47.860Z,966.67
2019-01-16T00:46:47.815Z,966.57
2019-01-16T00:47:47.812Z,966.56
2019-01-16T00:48:47.857Z,966.64
2019-01-16T00:49:47.775Z,966.62
2019-01-16T00:50:47.848Z,966.64
2019-01-16T00:51:47.738Z,966.59
2019-01-16T00:52:47.733Z,966.63
2019-01-16T00:53:47.719Z,966.60
2019-01-16T00:54:47.720Z,966.52
2019-01-16T00:55:47.720Z,966.52
2019-01-16T00:56:47.708Z,966.52
2019-01-16T00:57:47.673Z,966.55
2019-01-16T00:58:47.706Z,966.59
2019-01-16T00:59:47.690Z,966.59
2019-01-16T01:00:47.664Z,966.52
2019-01-16T01:01:47.674Z,966.60
2019-01-16T01:02:47.644Z,966.53
2019-01-16T01:03:47.625Z,966.51
2019-01-16T01:04:47.610Z,966.53
2019-01-16T01:05:47.601Z,966.52
2019-01-16T01:06:47.629Z,966.50
2019-01-16T01:07:47.578Z,966.54
2019-01-16T01:08:47.561Z,966.58
2019-01-16T01:09:47.594Z,966.59
2019-01-16T01:10:47.542Z,966.50
2019-01-16T01:11:47.534Z,966.49
2019-01-16T01:12:47.600Z,966.54
2019-01-16T01:13:47.526Z,966.58
2019-01-16T01:14:47.502Z,966.62
2019-01-16T01:15:47.488Z,966.61
2019-01-16T01:16:47.479Z,966.63
2019-01-16T01:17:47.466Z,966.58
2019-01-16T01:18:47.451Z,966.60
2019-01-16T01:19:47.455Z,966.56
2019-01-16T01:20:47.424Z,966.57
2019-01-16T01:21:47.409Z,966.56
2019-01-16T01:22:47.436Z,966.59
2019-01-16T01:23:47.389Z,966.55
2019-01-16T01:24:47.413Z,966.53
2019-01-16T01:25:47.389Z,966.53
2019-01-16T01:26:47.382Z,966.50
2019-01-16T01:27:47.375Z,966.53
2019-01-16T01:28:47.357Z,966.47
2019-01-16T01:29:47.378Z,966.50
2019-01-16T01:30:47.322Z,966.52
2019-01-16T01:31:47.320Z,966.47
2019-01-16T01:32:47.318Z,966.44
2019-01-16T01:33:47.291Z,966.42
2019-01-16T01:34:47.296Z,966.41
2019-01-16T01:35:47.288Z,966.41
2019-01-16T01:36:47.273Z,966.45
2019-01-16T01:37:47.236Z,966.47
2019-01-16T01:38:47.246Z,966.42
2019-01-16T01:39:47.276Z,966.42
2019-01-16T01:40:47.206Z,966.40
2019-01-16T01:41:47.196Z,966.43
2019-01-16T01:42:47.180Z,966.34
2019-01-16T01:43:47.178Z,966.37
2019-01-16T01:44:47.187Z,966.40
2019-01-16T01:45:47.188Z,966.37
2019-01-16T01:46:47.163Z,966.37
2019-01-16T01:47:47.135Z,966.43
2019-01-16T01:48:47.144Z,966.39
2019-01-16T01:49:47.197Z,966.43
2019-01-16T01:50:47.109Z,966.38
2019-01-16T01:51:47.092Z,966.34
2019-01-16T01:52:47.094Z,966.38
2019-01-16T01:53:47.054Z,966.35
2019-01-16T01:54:47.284Z,966.45
2019-01-16T01:55:47.035Z,966.42
2019-01-16T01:56:47.050Z,966.39
2019-01-16T01:57:47.037Z,966.44
2019-01-16T01:58:47.005Z,966.41
2019-01-16T01:59:47.015Z,966.40
2019-01-16T02:00:46.988Z,966.40
2019-01-16T02:01:46.972Z,966.49
2019-01-16T02:02:46.968Z,966.39
2019-01-16T02:03:46.970Z,966.37
2019-01-16T02:04:46.937Z,966.44
2019-01-16T02:05:46.936Z,966.40
2019-01-16T02:06:46.911Z,966.39
2019-01-16T02:07:46.925Z,966.36
2019-01-16T02:08:46.891Z,966.41
2019-01-16T02:09:46.904Z,966.34
2019-01-16T02:10:46.906Z,966.33
2019-01-16T02:11:46.877Z,966.36
2019-01-16T02:12:46.867Z,966.37
2019-01-16T02:13:46.849Z,966.37
2019-01-16T02:14:46.833Z,966.33
2019-01-16T02:15:46.818Z,966.33
2019-01-16T02:16:46.813Z,966.26
2019-01-16T02:17:47.751Z,966.30
2019-01-16T02:18:47.501Z,966.36
2019-01-16T02:19:46.803Z,966.31
2019-01-16T02:20:46.773Z,966.33
2019-01-16T02:21:46.756Z,966.26
2019-01-16T02:22:46.737Z,966.25
2019-01-16T02:23:46.727Z,966.21
2019-01-16T02:24:46.722Z,966.23
2019-01-16T02:25:46.715Z,966.25
2019-01-16T02:26:46.715Z,966.22
2019-01-16T02:27:46.718Z,966.20
2019-01-16T02:28:46.683Z,966.20
2019-01-16T02:29:46.676Z,966.22
2019-01-16T02:30:46.671Z,966.15
2019-01-16T02:31:46.677Z,966.11
2019-01-16T02:32:46.640Z,966.12
2019-01-16T02:33:46.629Z,966.09
2019-01-16T02:34:46.650Z,966.04
2019-01-16T02:35:46.610Z,966.04
2019-01-16T02:36:46.624Z,966.06
2019-01-16T02:37:46.591Z,966.06
2019-01-16T02:38:46.588Z,966.06
2019-01-16T02:39:46.564Z,966.00
2019-01-16T02:40:46.564Z,965.94
2019-01-16T02:41:46.530Z,965.93
2019-01-16T02:42:46.548Z,965.94
2019-01-16T02:43:46.519Z,965.99
2019-01-16T02:44:46.501Z,965.93
2019-01-16T02:45:46.514Z,966.00
2019-01-16T02:46:46.488Z,965.96
2019-01-16T02:47:46.496Z,965.94
2019-01-16T02:48:46.454Z,965.94
2019-01-16T02:49:46.450Z,965.91
2019-01-16T02:50:46.440Z,965.87
2019-01-16T02:51:46.448Z,965.90
2019-01-16T02:52:46.410Z,965.89
2019-01-16T02:53:46.410Z,965.91
2019-01-16T02:54:46.386Z,965.93
2019-01-16T02:55:46.391Z,965.86
2019-01-16T02:56:46.367Z,965.84
2019-01-16T02:57:46.368Z,965.84
2019-01-16T02:58:46.388Z,965.85
2019-01-16T02:59:46.335Z,965.87
2019-01-16T03:00:46.323Z,965.85
2019-01-16T03:01:46.321Z,965.80
2019-01-16T03:02:46.301Z,965.80
2019-01-16T03:03:46.319Z,965.78
2019-01-16T03:04:46.280Z,965.81
2019-01-16T03:05:46.291Z,965.77
2019-01-16T03:06:46.269Z,965.73
2019-01-16T03:07:46.243Z,965.75
2019-01-16T03:08:46.239Z,965.73
2019-01-16T03:09:46.227Z,965.74
2019-01-16T03:10:46.222Z,965.75
2019-01-16T03:11:46.281Z,965.73
2019-01-16T03:12:46.208Z,965.76
2019-01-16T03:13:46.200Z,965.75
2019-01-16T03:14:46.169Z,965.71
2019-01-16T03:15:46.164Z,965.75
2019-01-16T03:16:46.149Z,965.66
2019-01-16T03:17:46.147Z,965.68
2019-01-16T03:18:46.140Z,965.70
2019-01-16T03:19:46.122Z,965.70
2019-01-16T03:20:46.107Z,965.64
2019-01-16T03:21:46.094Z,965.66
2019-01-16T03:22:46.089Z,965.70
2019-01-16T03:23:46.082Z,965.64
2019-01-16T03:24:46.107Z,965.66
2019-01-16T03:25:46.047Z,965.64
2019-01-16T03:26:46.038Z,965.65
2019-01-16T03:27:46.030Z,965.67
2019-01-16T03:28:46.021Z,965.62
2019-01-16T03:29:46.033Z,965.65
2019-01-16T03:30:45.999Z,965.62
2019-01-16T03:31:45.986Z,965.66
2019-01-16T03:32:45.991Z,965.65
2019-01-16T03:33:45.975Z,965.64
2019-01-16T03:34:45.952Z,965.64
2019-01-16T03:35:45.945Z,965.64
2019-01-16T03:36:45.933Z,965.66
2019-01-16T03:37:45.924Z,965.66
2019-01-16T03:38:45.905Z,965.58
2019-01-16T03:39:45.908Z,965.58
2019-01-16T03:40:45.915Z,965.62
2019-01-16T03:41:45.903Z,965.60
2019-01-16T03:42:45.878Z,965.60
2019-01-16T03:43:45.855Z,965.56
2019-01-16T03:44:45.843Z,965.60
2019-01-16T03:45:45.853Z,965.54
2019-01-16T03:46:45.821Z,965.52
2019-01-16T03:47:45.835Z,965.56
2019-01-16T03:48:45.816Z,965.52
2019-01-16T03:49:45.805Z,965.53
2019-01-16T03:50:45.778Z,965.46
2019-01-16T03:51:45.770Z,965.46
2019-01-16T03:52:45.752Z,965.50
2019-01-16T03:53:45.746Z,965.49
2019-01-16T03:54:45.734Z,965.50
2019-01-16T03:55:45.734Z,965.48
2019-01-16T03:56:45.728Z,965.47
2019-01-16T03:57:45.705Z,965.48
2019-01-16T03:58:45.707Z,965.49
2019-01-16T03:59:45.678Z,965.44
2019-01-16T04:00:45.668Z,965.45
2019-01-16T04:01:45.688Z,965.51
2019-01-16T04:02:45.642Z,965.44
2019-01-16T04:03:45.645Z,965.43
2019-01-16T04:04:45.623Z,965.42
2019-01-16T04:05:45.625Z,965.42
2019-01-16T04:06:45.663Z,965.43
2019-01-16T04:07:45.609Z,965.43
2019-01-16T04:08:45.631Z,965.35
2019-01-16T04:09:45.587Z,965.34
2019-01-16T04:10:45.587Z,965.40
2019-01-16T04:11:45.552Z,965.33
2019-01-16T04:12:45.561Z,965.38
2019-01-16T04:13:45.529Z,965.39
2019-01-16T04:14:45.550Z,965.41
2019-01-16T04:15:45.549Z,965.40
2019-01-16T04:16:45.523Z,965.40
2019-01-16T04:17:45.515Z,965.40
2019-01-16T04:18:45.493Z,965.38
2019-01-16T04:19:45.473Z,965.40
2019-01-16T04:20:45.463Z,965.45
2019-01-16T04:21:45.452Z,965.38
2019-01-16T04:22:45.449Z,965.41
2019-01-16T04:23:45.504Z,965.43
2019-01-16T04:24:45.413Z,965.48
2019-01-16T04:25:45.407Z,965.41
2019-01-16T04:26:45.405Z,965.47
2019-01-16T04:27:45.543Z,965.46
2019-01-16T04:28:45.585Z,965.40
2019-01-16T04:29:45.407Z,965.36
2019-01-16T04:30:45.404Z,965.37
2019-01-16T04:31:45.330Z,965.31
2019-01-16T04:32:45.316Z,965.33
2019-01-16T04:33:45.318Z,965.31
2019-01-16T04:34:45.323Z,965.27
2019-01-16T04:35:45.294Z,965.27
2019-01-16T04:36:45.279Z,965.25
2019-01-16T04:37:45.278Z,965.21
2019-01-16T04:38:45.311Z,965.24
2019-01-16T04:39:45.241Z,965.20
2019-01-16T04:40:45.278Z,965.23
2019-01-16T04:41:45.247Z,965.22
2019-01-16T04:42:45.242Z,965.24
2019-01-16T04:43:45.197Z,965.23
2019-01-16T04:44:45.254Z,965.25
2019-01-16T04:45:45.180Z,965.16
2019-01-16T04:46:45.175Z,965.21
2019-01-16T04:47:45.159Z,965.21
2019-01-16T04:48:45.193Z,965.19
2019-01-16T04:49:45.141Z,965.26
2019-01-16T04:50:45.122Z,965.21
2019-01-16T04:51:45.115Z,965.20
2019-01-16T04:52:45.116Z,965.25
2019-01-16T04:53:45.113Z,965.21
2019-01-16T04:54:45.105Z,965.19
2019-01-16T04:55:45.069Z,965.23
2019-01-16T04:56:45.056Z,965.23
2019-01-16T04:57:45.058Z,965.22
2019-01-16T04:58:45.047Z,965.20
2019-01-16T04:59:45.025Z,965.24
2019-01-16T05:00:45.018Z,965.15
2019-01-16T05:01:45.009Z,965.21
2019-01-16T05:02:45.009Z,965.20
2019-01-16T05:03:45.015Z,965.21
2019-01-16T05:04:44.984Z,965.23
2019-01-16T05:05:45.027Z,965.26
2019-01-16T05:06:44.967Z,965.22
2019-01-16T05:07:44.944Z,965.20
2019-01-16T05:08:44.942Z,965.14
2019-01-16T05:09:44.922Z,965.18
2019-01-16T05:10:44.962Z,965.19
2019-01-16T05:11:44.928Z,965.14
2019-01-16T05:12:44.901Z,965.13
2019-01-16T05:13:44.903Z,965.16
2019-01-16T05:14:44.861Z,965.18
2019-01-16T05:15:44.871Z,965.20
2019-01-16T05:16:44.839Z,965.14
2019-01-16T05:17:44.829Z,965.16
2019-01-16T05:18:44.835Z,965.16
2019-01-16T05:19:44.829Z,965.11
2019-01-16T05:20:44.828Z,965.13
2019-01-16T05:21:44.791Z,965.13
2019-01-16T05:22:44.774Z,965.15
2019-01-16T05:23:44.764Z,965.11
2019-01-16T05:24:44.756Z,965.12
2019-01-16T05:25:44.781Z,965.11
2019-01-16T05:26:44.755Z,965.12
2019-01-16T05:27:44.719Z,965.11
2019-01-16T05:28:44.707Z,965.10
2019-01-16T05:29:44.700Z,965.06
2019-01-16T05:30:44.692Z,965.14
2019-01-16T05:31:44.688Z,965.09
2019-01-16T05:32:44.685Z,965.06
2019-01-16T05:33:44.656Z,965.11
2019-01-16T05:34:44.638Z,965.09
2019-01-16T05:35:44.630Z,965.06
2019-01-16T05:36:44.619Z,965.03
2019-01-16T05:37:44.611Z,965.05
2019-01-16T05:38:44.601Z,965.08
2019-01-16T05:39:44.604Z,964.99
2019-01-16T05:40:44.597Z,965.02
2019-01-16T05:41:44.563Z,964.96
2019-01-16T05:42:44.610Z,964.99
2019-01-16T05:43:44.544Z,964.97
2019-01-16T05:44:44.532Z,964.96
2019-01-16T05:45:44.520Z,965.00
2019-01-16T05:46:44.513Z,964.99
2019-01-16T05:47:44.508Z,964.98
2019-01-16T05:48:44.499Z,964.98
2019-01-16T05:49:46.831Z,964.99
2019-01-16T05:50:44.486Z,964.99
2019-01-16T05:51:44.467Z,965.01
2019-01-16T05:52:44.475Z,965.06
2019-01-16T05:53:44.433Z,965.00
2019-01-16T05:54:44.435Z,965.02
2019-01-16T05:55:44.440Z,964.92
2019-01-16T05:56:44.397Z,965.00
2019-01-16T05:57:44.400Z,965.02
2019-01-16T05:58:44.422Z,964.97
2019-01-16T05:59:44.365Z,964.99
2019-01-16T06:00:44.357Z,964.97
2019-01-16T06:01:44.350Z,964.98
2019-01-16T06:02:44.340Z,964.95
2019-01-16T06:03:44.322Z,964.93
2019-01-16T06:04:44.311Z,964.92
2019-01-16T06:05:44.348Z,964.98
2019-01-16T06:06:44.340Z,964.94
2019-01-16T06:07:44.276Z,964.92
2019-01-16T06:08:44.300Z,964.93
2019-01-16T06:09:44.263Z,964.95
2019-01-16T06:10:44.253Z,964.94
2019-01-16T06:11:44.241Z,964.90
2019-01-16T06:12:44.245Z,964.94
2019-01-16T06:13:44.231Z,964.94
2019-01-16T06:14:44.197Z,964.90
2019-01-16T06:15:44.200Z,964.98
2019-01-16T06:16:44.194Z,964.94
2019-01-16T06:17:44.164Z,964.95
2019-01-16T06:18:44.154Z,965.00
2019-01-16T06:19:44.209Z,964.91
2019-01-16T06:20:44.158Z,964.93
2019-01-16T06:21:44.136Z,964.97
2019-01-16T06:22:44.111Z,964.96
2019-01-16T06:23:44.116Z,964.89
2019-01-16T06:24:44.087Z,964.94
2019-01-16T06:25:44.083Z,964.96
2019-01-16T06:26:44.067Z,964.98
2019-01-16T06:27:44.099Z,964.96
2019-01-16T06:28:44.180Z,964.95
2019-01-16T06:29:44.210Z,964.87
2019-01-16T06:30:44.019Z,964.91
2019-01-16T06:31:44.017Z,964.93
2019-01-16T06:32:44.003Z,964.92
2019-01-16T06:33:44.023Z,964.95
2019-01-16T06:34:43.997Z,964.92
2019-01-16T06:35:43.967Z,964.90
2019-01-16T06:36:44.014Z,964.90
2019-01-16T06:37:43.977Z,964.90
2019-01-16T06:38:43.956Z,964.91
2019-01-16T06:39:43.929Z,964.87
2019-01-16T06:40:43.935Z,964.86
2019-01-16T06:41:43.928Z,964.82
2019-01-16T06:42:43.916Z,964.89
2019-01-16T06:43:43.894Z,964.77
2019-01-16T06:44:43.873Z,964.83
2019-01-16T06:45:43.867Z,964.80
2019-01-16T06:46:43.919Z,964.69
2019-01-16T06:47:43.893Z,964.78
2019-01-16T06:48:43.844Z,964.78
2019-01-16T06:49:43.820Z,964.82
2019-01-16T06:50:43.859Z,964.83
2019-01-16T06:51:43.796Z,964.80
2019-01-16T06:52:43.782Z,964.89
2019-01-16T06:53:43.784Z,964.84
2019-01-16T06:54:43.784Z,964.79
2019-01-16T06:55:43.747Z,964.82
2019-01-16T06:56:43.782Z,964.82
2019-01-16T06:57:43.753Z,964.87
2019-01-16T06:58:43.711Z,964.83
2019-01-16T06:59:43.719Z,964.89
2019-01-16T07:00:43.693Z,964.88
2019-01-16T07:01:43.693Z,964.81
2019-01-16T07:02:43.697Z,964.80
2019-01-16T07:03:43.670Z,964.79
2019-01-16T07:04:43.668Z,964.84
2019-01-16T07:05:43.691Z,964.85
2019-01-16T07:06:43.629Z,964.79
2019-01-16T07:07:43.614Z,964.77
2019-01-16T07:08:43.636Z,964.75
2019-01-16T07:09:43.604Z,964.73
2019-01-16T07:10:43.591Z,964.78
2019-01-16T07:11:43.585Z,964.81
2019-01-16T07:12:43.564Z,964.73
2019-01-16T07:13:43.615Z,964.68
2019-01-16T07:14:43.537Z,964.67
2019-01-16T07:15:43.529Z,964.74
2019-01-16T07:16:43.560Z,964.66
2019-01-16T07:17:43.518Z,964.66
2019-01-16T07:18:43.507Z,964.65
2019-01-16T07:19:43.517Z,964.73
2019-01-16T07:20:43.478Z,964.67
2019-01-16T07:21:43.467Z,964.71
2019-01-16T07:22:43.457Z,964.65
2019-01-16T07:23:43.494Z,964.68
2019-01-16T07:24:43.438Z,964.70
2019-01-16T07:25:43.423Z,964.71
2019-01-16T07:26:43.459Z,964.63
2019-01-16T07:27:43.407Z,964.66
2019-01-16T07:28:43.387Z,964.66
2019-01-16T07:29:43.380Z,964.66
2019-01-16T07:30:43.385Z,964.68
2019-01-16T07:31:43.371Z,964.63
2019-01-16T07:32:43.342Z,964.61
2019-01-16T07:33:43.335Z,964.59
2019-01-16T07:34:43.334Z,964.58
2019-01-16T07:35:43.360Z,964.59
2019-01-16T07:36:43.309Z,964.48
2019-01-16T07:37:43.339Z,964.56
2019-01-16T07:38:43.283Z,964.60
2019-01-16T07:39:43.298Z,964.58
2019-01-16T07:40:43.275Z,964.60
2019-01-16T07:41:43.241Z,964.56
2019-01-16T07:42:47.011Z,964.56
2019-01-16T07:43:43.235Z,964.59
2019-01-16T07:44:43.214Z,964.59
2019-01-16T07:45:43.215Z,964.59
2019-01-16T07:46:43.233Z,964.63
2019-01-16T07:47:43.260Z,964.50
2019-01-16T07:48:43.180Z,964.47
2019-01-16T07:49:43.202Z,964.50
2019-01-16T07:50:43.162Z,964.48
2019-01-16T07:51:43.134Z,964.46
2019-01-16T07:52:43.165Z,964.48
2019-01-16T07:53:43.133Z,964.46
2019-01-16T07:54:43.144Z,964.43
2019-01-16T07:55:43.108Z,964.53
2019-01-16T07:56:43.139Z,964.53
2019-01-16T07:57:43.080Z,964.49
2019-01-16T07:58:43.091Z,964.41
2019-01-16T07:59:43.086Z,964.46
2019-01-16T08:00:43.068Z,964.39
2019-01-16T08:01:43.031Z,964.44
2019-01-16T08:02:43.067Z,964.44
2019-01-16T08:03:43.010Z,964.50
2019-01-16T08:04:42.996Z,964.51
2019-01-16T08:05:43.060Z,964.51
2019-01-16T08:06:42.981Z,964.51
2019-01-16T08:07:42.967Z,964.50
2019-01-16T08:08:42.954Z,964.58
2019-01-16T08:09:42.935Z,964.59
2019-01-16T08:10:42.977Z,964.55
2019-01-16T08:11:42.986Z,964.56
2019-01-16T08:12:42.923Z,964.57
2019-01-16T08:13:42.902Z,964.58
2019-01-16T08:14:42.890Z,964.57
2019-01-16T08:15:42.894Z,964.56
2019-01-16T08:16:42.866Z,964.59
2019-01-16T08:17:42.891Z,964.60
2019-01-16T08:18:42.900Z,964.55
2019-01-16T08:19:42.851Z,964.57
2019-01-16T08:20:42.836Z,964.64
2019-01-16T08:21:42.810Z,964.63
2019-01-16T08:22:42.911Z,964.61
2019-01-16T08:23:42.840Z,964.59
2019-01-16T08:24:42.772Z,964.62
2019-01-16T08:25:42.837Z,964.62
2019-01-16T08:26:42.790Z,964.54
2019-01-16T08:27:42.750Z,964.57
2019-01-16T08:28:42.734Z,964.58
2019-01-16T08:29:42.755Z,964.59
2019-01-16T08:30:42.710Z,964.49
2019-01-16T08:31:42.702Z,964.55
2019-01-16T08:32:42.707Z,964.55
2019-01-16T08:33:42.679Z,964.52
2019-01-16T08:34:42.685Z,964.54
2019-01-16T08:35:42.659Z,964.52
2019-01-16T08:36:42.642Z,964.48
2019-01-16T08:37:42.684Z,964.50
2019-01-16T08:38:42.647Z,964.47
2019-01-16T08:39:42.653Z,964.45
2019-01-16T08:40:42.607Z,964.37
2019-01-16T08:41:42.652Z,964.37
2019-01-16T08:42:42.597Z,964.38
2019-01-16T08:43:42.567Z,964.45
2019-01-16T08:44:42.581Z,964.45
2019-01-16T08:45:42.544Z,964.47
2019-01-16T08:46:42.543Z,964.48
2019-01-16T08:47:42.543Z,964.41
2019-01-16T08:48:42.511Z,964.40
2019-01-16T08:49:42.498Z,964.38
2019-01-16T08:50:42.488Z,964.31
2019-01-16T08:51:42.530Z,964.37
2019-01-16T08:52:42.486Z,964.33
2019-01-16T08:53:42.455Z,964.32
2019-01-16T08:54:42.440Z,964.28
2019-01-16T08:55:42.466Z,964.24
2019-01-16T08:56:42.446Z,964.24
2019-01-16T08:57:42.436Z,964.18
2019-01-16T08:58:42.525Z,964.27
2019-01-16T08:59:42.398Z,964.19
2019-01-16T09:00:42.379Z,964.24
2019-01-16T09:01:42.409Z,964.23
2019-01-16T09:02:42.366Z,964.26
2019-01-16T09:03:42.384Z,964.32
2019-01-16T09:04:42.363Z,964.32
2019-01-16T09:05:42.337Z,964.27
2019-01-16T09:06:42.335Z,964.30
2019-01-16T09:07:42.322Z,964.28
2019-01-16T09:08:42.337Z,964.27
2019-01-16T09:09:42.354Z,964.19
2019-01-16T09:10:42.327Z,964.03
2019-01-16T09:11:43.129Z,964.18
2019-01-16T09:12:42.270Z,964.16
2019-01-16T09:13:42.235Z,964.09
2019-01-16T09:14:42.249Z,964.13
2019-01-16T09:15:42.221Z,964.14
2019-01-16T09:16:42.207Z,964.17
2019-01-16T09:17:42.431Z,964.15
2019-01-16T09:18:42.228Z,964.19
2019-01-16T09:19:42.173Z,964.15
2019-01-16T09:20:42.162Z,964.16
2019-01-16T09:21:42.168Z,964.10
2019-01-16T09:22:42.150Z,964.11
2019-01-16T09:23:42.150Z,964.08
2019-01-16T09:24:43.173Z,964.07
2019-01-16T09:25:42.132Z,964.04
2019-01-16T09:26:42.108Z,964.08
2019-01-16T09:27:42.085Z,964.07
2019-01-16T09:28:42.072Z,964.06
2019-01-16T09:29:43.279Z,964.07
2019-01-16T09:30:42.045Z,964.04
2019-01-16T09:31:42.044Z,964.01
2019-01-16T09:32:42.057Z,964.03
2019-01-16T09:33:42.025Z,964.01
2019-01-16T09:34:42.047Z,963.98
2019-01-16T09:35:42.016Z,963.91
2019-01-16T09:36:42.009Z,963.91
2019-01-16T09:37:41.969Z,963.91
2019-01-16T09:38:41.981Z,963.86
2019-01-16T09:39:41.965Z,963.91
2019-01-16T09:40:41.950Z,963.83
2019-01-16T09:41:41.922Z,963.85
2019-01-16T09:42:41.932Z,963.80
2019-01-16T09:43:41.929Z,963.78
2019-01-16T09:44:41.911Z,963.81
2019-01-16T09:45:41.924Z,963.75
2019-01-16T09:46:41.875Z,963.79
2019-01-16T09:47:41.887Z,963.79
2019-01-16T09:48:41.961Z,963.80
2019-01-16T09:49:41.832Z,963.81
2019-01-16T09:50:47.809Z,963.83
2019-01-16T09:51:42.818Z,963.84
2019-01-16T09:52:41.822Z,963.75
2019-01-16T09:53:41.891Z,963.81
2019-01-16T09:54:41.825Z,963.78
2019-01-16T09:55:41.792Z,963.72
2019-01-16T09:56:41.767Z,963.72
2019-01-16T09:57:41.882Z,963.73
2019-01-16T09:58:41.755Z,963.70
2019-01-16T09:59:41.734Z,963.66
2019-01-16T10:00:41.724Z,963.65
2019-01-16T10:01:41.706Z,963.64
2019-01-16T10:02:41.734Z,963.66
2019-01-16T10:03:41.690Z,963.64
2019-01-16T10:04:41.677Z,963.65
2019-01-16T10:05:41.682Z,963.65
2019-01-16T10:06:41.689Z,963.57
2019-01-16T10:07:41.675Z,963.60
2019-01-16T10:08:41.650Z,963.60
2019-01-16T10:09:41.643Z,963.69
2019-01-16T10:10:41.609Z,963.66
2019-01-16T10:11:41.605Z,963.66
2019-01-16T10:12:41.636Z,963.59
2019-01-16T10:13:41.579Z,963.62
2019-01-16T10:14:41.579Z,963.63
2019-01-16T10:15:41.584Z,963.55
2019-01-16T10:16:41.592Z,963.53
2019-01-16T10:17:41.564Z,963.51
2019-01-16T10:18:41.528Z,963.56
2019-01-16T10:19:41.556Z,963.57
2019-01-16T10:20:46.098Z,963.51
2019-01-16T10:21:42.494Z,963.51
2019-01-16T10:22:41.493Z,963.47
2019-01-16T10:23:41.515Z,963.44
2019-01-16T10:24:41.507Z,963.38
2019-01-16T10:25:41.442Z,963.46
2019-01-16T10:26:41.470Z,963.37
2019-01-16T10:27:41.421Z,963.39
2019-01-16T10:28:41.424Z,963.35
2019-01-16T10:29:41.433Z,963.34
2019-01-16T10:30:41.393Z,963.30
2019-01-16T10:31:41.407Z,963.29
2019-01-16T10:32:41.410Z,963.21
2019-01-16T10:33:41.354Z,963.22
2019-01-16T10:34:41.396Z,963.15
2019-01-16T10:35:41.402Z,963.16
2019-01-16T10:36:41.386Z,963.17
2019-01-16T10:37:41.381Z,963.05
2019-01-16T10:38:41.319Z,963.06
2019-01-16T10:39:41.336Z,963.03
2019-01-16T10:40:41.344Z,962.96
2019-01-16T10:41:41.304Z,962.97
2019-01-16T10:42:41.277Z,962.90
2019-01-16T10:43:41.297Z,962.93
2019-01-16T10:44:41.267Z,962.89
2019-01-16T10:45:41.239Z,962.90
2019-01-16T10:46:41.250Z,962.86
2019-01-16T10:47:41.238Z,962.84
2019-01-16T10:48:41.199Z,962.87
2019-01-16T10:49:41.238Z,962.85
2019-01-16T10:50:41.177Z,962.82
2019-01-16T10:51:41.163Z,962.80
2019-01-16T10:52:41.185Z,962.87
2019-01-16T10:53:41.198Z,962.86
2019-01-16T10:54:41.143Z,962.80
2019-01-16T10:55:41.146Z,962.78
2019-01-16T10:56:41.101Z,962.75
2019-01-16T10:57:41.092Z,962.80
2019-01-16T10:58:41.078Z,962.82
2019-01-16T10:59:41.066Z,962.76
2019-01-16T11:00:41.107Z,962.77
2019-01-16T11:01:41.103Z,962.78
2019-01-16T11:02:41.041Z,962.73
2019-01-16T11:03:41.054Z,962.74
2019-01-16T11:04:41.063Z,962.71
2019-01-16T11:05:41.010Z,962.72
2019-01-16T11:06:41.074Z,962.69
2019-01-16T11:07:40.986Z,962.72
2019-01-16T11:08:40.995Z,962.70
2019-01-16T11:09:40.961Z,962.70
2019-01-16T11:10:40.965Z,962.61
2019-01-16T11:11:40.974Z,962.61
2019-01-16T11:12:40.928Z,962.62
2019-01-16T11:13:40.910Z,962.62
2019-01-16T11:14:40.930Z,962.61
2019-01-16T11:15:40.895Z,962.57
2019-01-16T11:16:40.880Z,962.65
2019-01-16T11:17:40.942Z,962.59
2019-01-16T11:18:40.866Z,962.65
2019-01-16T11:19:40.845Z,962.61
2019-01-16T11:20:40.848Z,962.69
2019-01-16T11:21:40.854Z,962.63
2019-01-16T11:22:40.811Z,962.61
2019-01-16T11:23:40.800Z,962.55
2019-01-16T11:24:40.819Z,962.46
2019-01-16T11:25:40.817Z,962.47
2019-01-16T11:26:40.781Z,962.40
2019-01-16T11:27:40.792Z,962.42
2019-01-16T11:28:40.751Z,962.37
2019-01-16T11:29:40.736Z,962.37
2019-01-16T11:30:40.742Z,962.36
2019-01-16T11:31:40.723Z,962.27
2019-01-16T11:32:40.706Z,962.28
2019-01-16T11:33:40.703Z,962.29
2019-01-16T11:34:40.691Z,962.20
2019-01-16T11:35:40.724Z,962.22
2019-01-16T11:36:40.695Z,962.14
2019-01-16T11:37:40.696Z,962.19
2019-01-16T11:38:40.653Z,962.15
2019-01-16T11:39:40.705Z,962.10
2019-01-16T11:40:40.619Z,962.09
2019-01-16T11:41:40.630Z,962.15
2019-01-16T11:42:40.618Z,962.11
2019-01-16T11:43:40.623Z,962.10
2019-01-16T11:44:40.578Z,962.10
2019-01-16T11:45:40.575Z,962.10
2019-01-16T11:46:40.581Z,962.07
2019-01-16T11:47:40.537Z,961.98
2019-01-16T11:48:40.527Z,961.98
2019-01-16T11:49:40.511Z,961.96
2019-01-16T11:50:40.528Z,961.86
2019-01-16T11:51:40.498Z,961.83
2019-01-16T11:52:40.515Z,961.77
2019-01-16T11:53:40.477Z,961.79
2019-01-16T11:54:40.474Z,961.73
2019-01-16T11:55:40.499Z,961.75
2019-01-16T11:56:40.432Z,961.69
2019-01-16T11:57:40.475Z,961.65
2019-01-16T11:58:40.433Z,961.60
2019-01-16T11:59:40.412Z,961.63
2019-01-16T12:00:41.647Z,961.65
2019-01-16T12:01:40.424Z,961.59
2019-01-16T12:02:40.385Z,961.53
2019-01-16T12:03:40.423Z,961.59
2019-01-16T12:04:40.355Z,961.53
2019-01-16T12:05:40.422Z,961.51
2019-01-16T12:06:40.341Z,961.49
2019-01-16T12:07:40.491Z,961.47
2019-01-16T12:08:40.557Z,961.49
2019-01-16T12:09:40.576Z,961.45
2019-01-16T12:10:40.462Z,961.50
2019-01-16T12:11:40.380Z,961.48
2019-01-16T12:12:40.353Z,961.43
2019-01-16T12:13:40.329Z,961.45
2019-01-16T12:14:40.271Z,961.43
2019-01-16T12:15:40.223Z,961.45
2019-01-16T12:16:40.283Z,961.42
2019-01-16T12:17:40.201Z,961.42
2019-01-16T12:18:40.194Z,961.39
2019-01-16T12:19:40.227Z,961.44
2019-01-16T12:20:40.170Z,961.47
2019-01-16T12:21:40.164Z,961.35
2019-01-16T12:22:40.151Z,961.36
2019-01-16T12:23:40.139Z,961.36
2019-01-16T12:24:40.156Z,961.37
2019-01-16T12:25:40.123Z,961.40
2019-01-16T12:26:40.106Z,961.37
2019-01-16T12:27:40.086Z,961.35
2019-01-16T12:28:40.088Z,961.36